Time;durP1;ratioP1;P1;durP2;ratioP2;P2;SDS_P1;SDS_P2;PMS_P1;PMS_P2;Temp;Humidity;BMP_temperature;BMP_pressure;BME280_temperature;BME280_humidity;BME280_pressure;Samples;Min_cycle;Max_cycle;Signal;HPM_P1;HPM_P2
2020/12/08 00:02:22;;;;;;;1.92;0.80;;;21.40;48.70;;;;;;5129220;27;20035;-54
2020/12/08 00:04:48;;;;;;;1.23;0.68;;;21.40;48.70;;;;;;5125411;27;20249;-57
2020/12/08 00:07:13;;;;;;;2.05;0.80;;;21.40;48.80;;;;;;5142537;27;20093;-58
2020/12/08 00:09:39;;;;;;;1.23;0.70;;;21.40;49.00;;;;;;5136174;27;20027;-55
2020/12/08 00:12:06;;;;;;;1.40;0.80;;;21.30;48.80;;;;;;5138914;27;20035;-58
2020/12/08 00:14:31;;;;;;;1.67;0.80;;;21.30;48.80;;;;;;5133812;27;20026;-55
2020/12/08 00:16:57;;;;;;;1.38;0.80;;;21.30;48.80;;;;;;5135673;27;20038;-58
2020/12/08 00:19:23;;;;;;;1.40;0.80;;;21.30;48.90;;;;;;5114675;27;20031;-55
2020/12/08 00:21:48;;;;;;;1.27;0.73;;;21.30;48.90;;;;;;5127063;27;20046;-54
2020/12/08 00:24:15;;;;;;;1.23;0.70;;;21.30;48.90;;;;;;5144456;27;20378;-59
2020/12/08 00:26:41;;;;;;;1.10;0.52;;;21.30;49.00;;;;;;5124062;27;20385;-58
2020/12/08 00:29:09;;;;;;;1.15;0.60;;;21.20;49.50;;;;;;5136172;27;20621;-54
2020/12/08 00:31:35;;;;;;;1.67;0.82;;;21.20;49.00;;;;;;5119131;27;20042;-57
2020/12/08 00:34:01;;;;;;;1.70;0.80;;;21.20;49.00;;;;;;5117385;27;20024;-56
2020/12/08 00:36:26;;;;;;;1.90;0.73;;;21.20;49.00;;;;;;5120799;27;20019;-59
2020/12/08 00:38:53;;;;;;;2.05;0.80;;;21.20;49.00;;;;;;5126608;27;20031;-55
2020/12/08 00:41:19;;;;;;;1.17;0.70;;;21.20;49.10;;;;;;5112640;27;20042;-54
2020/12/08 00:43:46;;;;;;;1.30;0.80;;;21.10;49.00;;;;;;5119661;27;20047;-54
2020/12/08 00:46:12;;;;;;;1.75;0.90;;;21.10;49.10;;;;;;5126884;27;20028;-54
2020/12/08 00:48:39;;;;;;;1.50;0.90;;;21.10;49.10;;;;;;5118316;27;20035;-51
2020/12/08 00:51:04;;;;;;;1.20;0.77;;;21.10;49.10;;;;;;5115840;27;20036;-54
2020/12/08 00:53:30;;;;;;;0.85;0.70;;;21.10;49.10;;;;;;5121385;27;20050;-56
2020/12/08 00:55:56;;;;;;;2.95;1.00;;;21.10;49.20;;;;;;5129051;27;20130;-54
2020/12/08 00:58:21;;;;;;;1.30;0.70;;;21.10;49.20;;;;;;5120792;27;20039;-56
2020/12/08 01:00:47;;;;;;;1.63;0.80;;;21.00;49.20;;;;;;5123095;27;20365;-56
2020/12/08 01:03:13;;;;;;;1.35;0.80;;;21.10;49.20;;;;;;5124892;27;20129;-57
2020/12/08 01:05:38;;;;;;;1.52;0.95;;;21.00;49.20;;;;;;5128420;27;20035;-55
2020/12/08 01:08:04;;;;;;;1.90;0.80;;;21.00;49.20;;;;;;5122143;27;20477;-58
2020/12/08 01:10:30;;;;;;;1.55;0.80;;;21.00;49.20;;;;;;5123925;27;20045;-57
2020/12/08 01:12:55;;;;;;;1.42;0.80;;;21.00;49.30;;;;;;5136311;27;20038;-54
2020/12/08 01:15:21;;;;;;;1.02;0.77;;;21.00;49.30;;;;;;5123872;27;20027;-58
2020/12/08 01:17:46;;;;;;;1.00;0.70;;;21.00;49.30;;;;;;5112879;27;20038;-55
2020/12/08 01:20:12;;;;;;;2.70;0.88;;;20.90;49.30;;;;;;5121603;27;20019;-56
2020/12/08 01:22:38;;;;;;;2.30;0.80;;;20.90;49.30;;;;;;5118242;27;20032;-52
2020/12/08 01:25:03;;;;;;;1.65;0.63;;;21.00;49.90;;;;;;5115321;27;20050;-58
2020/12/08 01:27:35;;;;;;;1.35;0.80;;;20.90;49.30;;;;;;5134131;27;20039;-55
2020/12/08 01:30:01;;;;;;;1.67;0.80;;;20.90;49.30;;;;;;5132817;27;20033;-57
2020/12/08 01:32:26;;;;;;;1.83;0.90;;;20.90;49.30;;;;;;5128416;27;20466;-57
2020/12/08 01:34:52;;;;;;;1.88;0.70;;;20.90;49.40;;;;;;5103680;27;20023;-57
2020/12/08 01:37:18;;;;;;;1.63;0.80;;;20.90;49.50;;;;;;5121786;27;20520;-56
2020/12/08 01:39:43;;;;;;;1.00;0.60;;;20.90;49.40;;;;;;5130369;27;20033;-58
2020/12/08 01:42:09;;;;;;;1.35;0.70;;;20.90;49.40;;;;;;5123694;27;20027;-57
2020/12/08 01:44:35;;;;;;;1.42;0.77;;;20.90;49.50;;;;;;5121586;27;20101;-60
2020/12/08 01:47:01;;;;;;;1.17;0.75;;;20.90;49.50;;;;;;5126672;27;20031;-59
2020/12/08 01:49:27;;;;;;;0.95;0.60;;;20.90;49.50;;;;;;5127275;27;20018;-53
2020/12/08 01:51:54;;;;;;;1.83;0.73;;;20.80;49.50;;;;;;5112639;27;20718;-57
2020/12/08 01:54:20;;;;;;;1.17;0.70;;;20.80;50.00;;;;;;5120004;27;20023;-59
2020/12/08 01:56:47;;;;;;;2.33;0.70;;;20.80;50.00;;;;;;5127217;27;20440;-55
2020/12/08 01:59:12;;;;;;;1.90;0.70;;;20.80;49.50;;;;;;5115204;27;20111;-58
2020/12/08 02:01:38;;;;;;;1.88;0.88;;;20.80;49.50;;;;;;5121978;27;20122;-56
2020/12/08 02:04:06;;;;;;;1.30;0.80;;;20.80;49.50;;;;;;5110634;27;20529;-57
2020/12/08 02:06:31;;;;;;;1.35;0.82;;;20.70;49.50;;;;;;5113050;27;20031;-59
2020/12/08 02:08:57;;;;;;;1.55;0.73;;;20.70;49.50;;;;;;5132650;27;20389;-57
2020/12/08 02:11:23;;;;;;;1.17;0.70;;;20.70;49.50;;;;;;5121068;27;20028;-55
2020/12/08 02:13:48;;;;;;;1.58;0.80;;;20.70;49.60;;;;;;5118891;27;20038;-56
2020/12/08 02:16:15;;;;;;;1.48;0.80;;;20.70;49.60;;;;;;5123158;27;20026;-57
2020/12/08 02:18:40;;;;;;;1.23;1.00;;;20.70;49.60;;;;;;5118226;27;20038;-56
2020/12/08 02:21:06;;;;;;;0.82;0.63;;;20.70;49.60;;;;;;5125136;27;20450;-58
2020/12/08 02:23:32;;;;;;;0.88;0.65;;;20.70;49.60;;;;;;5119325;27;20077;-55
2020/12/08 02:26:00;;;;;;;0.85;0.70;;;20.70;49.60;;;;;;5127243;27;20072;-56
2020/12/08 02:28:27;;;;;;;0.77;0.70;;;20.70;49.70;;;;;;5132174;27;20035;-56
2020/12/08 02:30:53;;;;;;;1.08;0.73;;;20.70;49.70;;;;;;5122861;27;20023;-57
2020/12/08 02:33:29;;;;;;;1.55;0.80;;;20.70;49.70;;;;;;5118106;27;20122;-57
2020/12/08 02:35:58;;;;;;;1.48;0.70;;;20.70;49.70;;;;;;5119579;27;20114;-55
2020/12/08 02:38:24;;;;;;;1.10;0.70;;;20.60;49.70;;;;;;5121005;27;20027;-59
2020/12/08 02:40:50;;;;;;;1.10;0.70;;;20.60;49.70;;;;;;5124067;27;20450;-57
2020/12/08 02:43:16;;;;;;;1.13;0.82;;;20.60;49.70;;;;;;5117073;27;20421;-57
2020/12/08 02:45:42;;;;;;;0.80;0.70;;;20.60;49.70;;;;;;5124556;27;20089;-57
2020/12/08 02:48:08;;;;;;;0.93;0.60;;;20.60;49.70;;;;;;5123737;27;20441;-57
2020/12/08 02:50:34;;;;;;;1.25;0.70;;;20.60;49.70;;;;;;5114458;27;20023;-59
2020/12/08 02:53:00;;;;;;;1.02;0.70;;;20.60;49.80;;;;;;5130726;27;20198;-60
2020/12/08 02:55:26;;;;;;;1.60;0.80;;;20.60;49.70;;;;;;5127024;27;20122;-55
2020/12/08 02:57:51;;;;;;;0.98;0.60;;;20.50;49.70;;;;;;5131247;27;20314;-59
2020/12/08 03:00:17;;;;;;;2.00;0.70;;;20.60;49.80;;;;;;5118780;27;20446;-54
2020/12/08 03:02:42;;;;;;;0.73;0.52;;;20.50;49.70;;;;;;5120023;27;20031;-58
2020/12/08 03:05:08;;;;;;;1.00;0.70;;;20.50;49.80;;;;;;5115177;27;20420;-55
2020/12/08 03:07:34;;;;;;;0.98;0.63;;;20.50;49.80;;;;;;5124119;27;20035;-57
2020/12/08 03:09:59;;;;;;;0.63;0.60;;;20.50;49.80;;;;;;5117781;27;20027;-54
2020/12/08 03:12:25;;;;;;;1.38;0.70;;;20.50;49.80;;;;;;5120553;28;20085;-56
2020/12/08 03:14:50;;;;;;;0.98;0.60;;;20.50;49.80;;;;;;5131927;27;20075;-53
2020/12/08 03:17:16;;;;;;;1.77;0.68;;;20.50;50.40;;;;;;5110108;27;20020;-53
2020/12/08 03:19:41;;;;;;;0.70;0.70;;;20.50;49.80;;;;;;5106042;28;20027;-57
2020/12/08 03:22:07;;;;;;;1.08;0.63;;;20.50;50.40;;;;;;5119693;27;20046;-57
2020/12/08 03:24:33;;;;;;;1.08;0.60;;;20.50;49.90;;;;;;5135280;27;20031;-56
2020/12/08 03:26:58;;;;;;;1.10;0.70;;;20.40;49.80;;;;;;5104057;27;20046;-58
2020/12/08 03:29:24;;;;;;;1.70;0.90;;;20.40;49.80;;;;;;5141733;27;20042;-57
2020/12/08 03:31:49;;;;;;;1.67;0.70;;;20.40;49.90;;;;;;5121996;27;20030;-58
2020/12/08 03:34:15;;;;;;;0.88;0.60;;;20.40;49.90;;;;;;5129585;27;20076;-59
2020/12/08 03:36:41;;;;;;;1.45;0.70;;;20.40;49.90;;;;;;5109494;28;20024;-55
2020/12/08 03:39:06;;;;;;;1.25;0.73;;;20.40;49.90;;;;;;5119524;27;20019;-55
2020/12/08 03:41:32;;;;;;;1.20;0.65;;;20.40;49.90;;;;;;5134831;27;20032;-57
2020/12/08 03:43:58;;;;;;;2.40;0.68;;;20.40;49.90;;;;;;5117133;27;20067;-58
2020/12/08 03:46:25;;;;;;;0.98;0.70;;;20.40;49.90;;;;;;5137423;27;20422;-57
2020/12/08 03:48:52;;;;;;;1.48;0.73;;;20.40;49.90;;;;;;5135270;27;20023;-56
2020/12/08 03:51:21;;;;;;;1.00;0.68;;;20.40;50.00;;;;;;5134384;27;20031;-57
2020/12/08 03:53:47;;;;;;;1.38;0.70;;;20.30;50.40;;;;;;5125020;27;20073;-56
2020/12/08 03:56:18;;;;;;;0.70;0.60;;;20.40;50.00;;;;;;5129579;27;20038;-55
2020/12/08 03:58:44;;;;;;;1.42;0.70;;;20.30;49.90;;;;;;5115306;27;20047;-57
2020/12/08 04:01:21;;;;;;;1.45;0.90;;;20.40;50.00;;;;;;5130226;27;20469;-57
2020/12/08 04:03:47;;;;;;;0.70;0.60;;;20.40;50.10;;;;;;5110852;27;20023;-59
2020/12/08 04:06:14;;;;;;;0.95;0.60;;;20.30;50.00;;;;;;5123553;27;20018;-56
2020/12/08 04:08:46;;;;;;;1.10;0.80;;;20.30;50.00;;;;;;5138062;27;20039;-58
2020/12/08 04:11:14;;;;;;;0.88;0.70;;;20.30;50.00;;;;;;5133949;27;20030;-55
2020/12/08 04:13:40;;;;;;;0.85;0.70;;;20.30;50.00;;;;;;5124836;27;20071;-56
2020/12/08 04:16:10;;;;;;;1.40;0.60;;;20.30;50.00;;;;;;5116164;27;20030;-54
2020/12/08 04:18:36;;;;;;;1.38;0.70;;;20.40;50.00;;;;;;5119747;27;20027;-54
2020/12/08 04:21:02;;;;;;;1.48;0.70;;;20.30;50.00;;;;;;5118261;27;20051;-54
2020/12/08 04:23:27;;;;;;;0.73;0.60;;;20.30;50.00;;;;;;5126761;27;20031;-54
2020/12/08 04:25:53;;;;;;;0.70;0.60;;;20.40;50.00;;;;;;5128336;27;20035;-56
2020/12/08 04:28:18;;;;;;;1.10;0.70;;;20.30;50.00;;;;;;5126942;27;20039;-56
2020/12/08 04:30:44;;;;;;;0.60;0.60;;;20.40;50.00;;;;;;5123640;27;20038;-59
2020/12/08 04:33:13;;;;;;;0.57;0.50;;;20.30;50.00;;;;;;5137026;27;20439;-56
2020/12/08 04:35:41;;;;;;;1.48;0.75;;;20.30;50.00;;;;;;5128930;27;20026;-52
2020/12/08 04:38:06;;;;;;;1.13;0.65;;;20.30;50.00;;;;;;5123538;27;20120;-56
2020/12/08 04:40:32;;;;;;;0.93;0.57;;;20.30;50.00;;;;;;5126962;27;20476;-56
2020/12/08 04:42:57;;;;;;;1.15;0.73;;;20.30;50.10;;;;;;5130495;27;20031;-57
2020/12/08 04:45:23;;;;;;;0.60;0.50;;;20.30;50.10;;;;;;5127027;27;20027;-59
2020/12/08 04:47:50;;;;;;;0.80;0.60;;;20.30;50.10;;;;;;5113959;27;20076;-57
2020/12/08 04:50:19;;;;;;;0.60;0.60;;;20.30;50.10;;;;;;5116944;27;20042;-59
2020/12/08 04:52:49;;;;;;;0.60;0.43;;;20.20;50.10;;;;;;5123051;27;20035;-58
2020/12/08 04:55:15;;;;;;;0.98;0.60;;;20.20;50.10;;;;;;5119348;27;20080;-56
2020/12/08 04:57:41;;;;;;;0.60;0.60;;;20.30;50.40;;;;;;5116327;27;20035;-57
2020/12/08 05:00:13;;;;;;;0.65;0.60;;;20.20;50.20;;;;;;5118651;27;20019;-57
2020/12/08 05:02:49;;;;;;;0.73;0.60;;;20.30;50.20;;;;;;5121087;27;20456;-59
2020/12/08 05:05:18;;;;;;;1.00;0.60;;;20.20;50.20;;;;;;5117603;27;20126;-58
2020/12/08 05:07:45;;;;;;;1.08;0.60;;;20.20;50.20;;;;;;5123984;27;20031;-58
2020/12/08 05:10:11;;;;;;;0.65;0.60;;;20.20;50.20;;;;;;5116968;27;20034;-53
2020/12/08 05:12:37;;;;;;;0.50;0.50;;;20.20;50.20;;;;;;5128057;27;20161;-52
2020/12/08 05:15:04;;;;;;;0.77;0.60;;;20.20;50.20;;;;;;5133752;27;20173;-58
2020/12/08 05:17:31;;;;;;;2.00;0.65;;;20.20;50.20;;;;;;5118729;27;20015;-58
2020/12/08 05:20:05;;;;;;;1.20;0.60;;;20.20;50.30;;;;;;5121434;27;20027;-55
2020/12/08 05:22:31;;;;;;;0.63;0.57;;;20.20;50.30;;;;;;5118064;27;20019;-55
2020/12/08 05:25:11;;;;;;;0.65;0.65;;;20.20;50.30;;;;;;5119642;27;20355;-59
2020/12/08 05:27:37;;;;;;;1.00;0.60;;;20.20;50.80;;;;;;5121290;27;20436;-54
2020/12/08 05:30:07;;;;;;;0.75;0.60;;;20.20;50.30;;;;;;5126146;27;20071;-57
2020/12/08 05:32:38;;;;;;;0.93;0.60;;;20.20;50.30;;;;;;5123390;27;20034;-56
2020/12/08 05:35:12;;;;;;;0.45;0.43;;;20.20;50.40;;;;;;5117215;27;20110;-59
2020/12/08 05:37:45;;;;;;;0.90;0.52;;;20.20;50.80;;;;;;5117325;27;20392;-57
2020/12/08 05:40:21;;;;;;;1.17;0.65;;;20.10;50.30;;;;;;5119835;27;20019;-58
2020/12/08 05:42:49;;;;;;;0.90;0.60;;;20.20;50.40;;;;;;5129155;27;20091;-56
2020/12/08 05:45:17;;;;;;;0.80;0.60;;;20.10;50.40;;;;;;5128306;27;20563;-55
2020/12/08 05:47:49;;;;;;;0.85;0.60;;;20.10;50.40;;;;;;5115294;27;20402;-58
2020/12/08 05:50:17;;;;;;;1.90;0.70;;;20.10;50.40;;;;;;5121388;27;20151;-55
2020/12/08 05:52:50;;;;;;;0.75;0.60;;;20.20;50.50;;;;;;5126731;27;20057;-56
2020/12/08 05:55:19;;;;;;;0.60;0.60;;;20.10;50.50;;;;;;5127116;27;20026;-55
2020/12/08 05:57:46;;;;;;;1.38;0.80;;;20.10;50.50;;;;;;5119810;27;20388;-56
2020/12/08 06:00:25;;;;;;;1.20;0.70;;;20.10;50.50;;;;;;5130141;27;20156;-58
2020/12/08 06:03:11;;;;;;;0.95;0.50;;;20.10;50.60;;;;;;5115592;27;20019;-61
2020/12/08 06:05:37;;;;;;;0.95;0.70;;;20.10;50.50;;;;;;5110194;27;20435;-57
2020/12/08 06:08:22;;;;;;;1.40;0.80;;;20.10;50.50;;;;;;5125441;27;20027;-56
2020/12/08 06:10:55;;;;;;;1.25;0.80;;;20.10;50.60;;;;;;5120805;27;20126;-58
2020/12/08 06:13:28;;;;;;;1.52;0.70;;;20.10;50.60;;;;;;5126870;27;20106;-58
2020/12/08 06:16:01;;;;;;;3.17;0.80;;;20.10;50.60;;;;;;5116443;27;20117;-58
2020/12/08 06:18:37;;;;;;;1.83;0.80;;;20.10;50.60;;;;;;5112320;27;20739;-56
2020/12/08 06:21:04;;;;;;;3.38;1.30;;;20.10;50.60;;;;;;5117561;27;20489;-55
2020/12/08 06:23:30;;;;;;;1.33;0.70;;;20.10;50.70;;;;;;5129158;27;20026;-57
2020/12/08 06:26:04;;;;;;;3.10;2.03;;;20.10;50.70;;;;;;5109895;27;20354;-57
2020/12/08 06:28:30;;;;;;;5.78;4.90;;;20.00;46.20;;;;;;5138049;27;20027;-58
2020/12/08 06:31:03;;;;;;;6.85;5.40;;;19.90;41.30;;;;;;5129133;27;20030;-58
2020/12/08 06:33:30;;;;;;;6.20;4.95;;;19.80;44.30;;;;;;5117006;27;20128;-52
2020/12/08 06:36:00;;;;;;;5.18;4.28;;;19.90;45.60;;;;;;5114585;27;20086;-58
2020/12/08 06:38:27;;;;;;;6.65;3.33;;;20.30;46.00;;;;;;5130553;27;20023;-57
2020/12/08 06:40:54;;;;;;;4.32;2.70;;;20.50;46.20;;;;;;5142857;27;20102;-52
2020/12/08 06:43:21;;;;;;;3.00;2.00;;;20.80;46.60;;;;;;5119000;27;20077;-55
2020/12/08 06:45:47;;;;;;;2.28;1.45;;;21.00;46.70;;;;;;5112424;27;20035;-55
2020/12/08 06:48:20;;;;;;;2.42;1.25;;;21.20;46.90;;;;;;5140626;27;20035;-54
2020/12/08 06:50:49;;;;;;;1.88;1.23;;;21.10;47.00;;;;;;5124431;27;20036;-55
2020/12/08 06:53:15;;;;;;;2.47;1.50;;;21.10;47.30;;;;;;5118224;27;20122;-57
2020/12/08 06:55:49;;;;;;;2.28;1.42;;;21.00;47.80;;;;;;5114722;27;20705;-57
2020/12/08 06:58:18;;;;;;;1.85;1.13;;;21.20;48.30;;;;;;5130896;27;20154;-54
2020/12/08 07:00:45;;;;;;;2.10;1.00;;;21.30;48.20;;;;;;5128571;27;20027;-59
2020/12/08 07:03:11;;;;;;;1.38;0.90;;;21.40;48.10;;;;;;5124257;27;20157;-57
2020/12/08 07:05:37;;;;;;;2.50;1.00;;;21.30;48.40;;;;;;5112088;27;20110;-55
2020/12/08 07:08:07;;;;;;;2.05;1.20;;;21.30;48.50;;;;;;5119680;27;20035;-53
2020/12/08 07:10:40;;;;;;;2.65;1.15;;;21.40;49.10;;;;;;5134663;27;20030;-60
2020/12/08 07:13:14;;;;;;;3.17;0.90;;;21.60;48.60;;;;;;5132453;27;20513;-55
2020/12/08 07:15:41;;;;;;;1.08;0.80;;;21.60;49.10;;;;;;5132544;27;20020;-56
2020/12/08 07:18:09;;;;;;;1.17;0.80;;;21.60;48.80;;;;;;5124023;27;20022;-57
2020/12/08 07:20:35;;;;;;;1.88;1.10;;;21.60;48.90;;;;;;5120216;27;20023;-58
2020/12/08 07:23:05;;;;;;;1.30;1.00;;;21.60;49.40;;;;;;5119413;27;20148;-56
2020/12/08 07:25:32;;;;;;;3.85;1.20;;;21.90;49.20;;;;;;5130861;27;20107;-58
2020/12/08 07:27:59;;;;;;;1.30;0.80;;;22.00;48.90;;;;;;5119027;27;20475;-60
2020/12/08 07:30:27;;;;;;;0.77;0.65;;;22.00;49.00;;;;;;5124821;27;20046;-59
2020/12/08 07:32:53;;;;;;;1.10;0.80;;;22.00;49.10;;;;;;5123692;27;20113;-58
2020/12/08 07:35:26;;;;;;;1.33;0.90;;;21.90;49.20;;;;;;5129274;27;20027;-54
2020/12/08 07:37:57;;;;;;;1.48;0.90;;;22.00;49.80;;;;;;5140364;27;20122;-58
2020/12/08 07:40:37;;;;;;;1.10;0.80;;;22.30;49.20;;;;;;5140627;27;20030;-57
2020/12/08 07:43:04;;;;;;;1.30;0.63;;;22.40;49.30;;;;;;5117588;27;20042;-56
2020/12/08 07:45:40;;;;;;;0.70;0.70;;;22.40;49.60;;;;;;5112125;27;20036;-55
2020/12/08 07:48:05;;;;;;;0.95;0.60;;;22.40;49.70;;;;;;5126318;27;20146;-54
2020/12/08 07:50:32;;;;;;;1.88;1.00;;;22.30;49.80;;;;;;5133866;27;20144;-57
2020/12/08 07:53:00;;;;;;;1.35;0.80;;;22.50;49.80;;;;;;5129446;27;20034;-58
2020/12/08 07:55:27;;;;;;;1.10;0.68;;;22.70;49.70;;;;;;5125560;27;20031;-55
2020/12/08 07:57:53;;;;;;;1.92;1.00;;;22.70;50.00;;;;;;5118671;27;20038;-56
2020/12/08 08:00:19;;;;;;;2.08;1.20;;;22.70;48.40;;;;;;5116603;27;20031;-55
2020/12/08 08:02:44;;;;;;;2.60;1.40;;;22.60;45.40;;;;;;5137478;27;20023;-57
2020/12/08 08:05:10;;;;;;;2.80;1.30;;;22.50;45.00;;;;;;5123873;27;20522;-56
2020/12/08 08:07:36;;;;;;;2.15;1.30;;;22.40;45.10;;;;;;5123734;27;20087;-59
2020/12/08 08:10:02;;;;;;;2.30;1.17;;;22.30;45.20;;;;;;5132544;27;20027;-57
2020/12/08 08:12:27;;;;;;;2.47;1.50;;;22.30;45.20;;;;;;5140991;27;20027;-54
2020/12/08 08:14:53;;;;;;;2.67;1.77;;;22.20;45.00;;;;;;5123328;27;20027;-58
2020/12/08 08:17:18;;;;;;;3.42;1.30;;;22.20;45.10;;;;;;5123666;27;20390;-56
2020/12/08 08:19:44;;;;;;;2.60;1.30;;;22.20;45.00;;;;;;5127117;27;20026;-54
2020/12/08 08:22:09;;;;;;;2.30;1.30;;;22.20;45.60;;;;;;5134911;27;20030;-50
2020/12/08 08:24:35;;;;;;;3.10;1.30;;;22.20;45.80;;;;;;5137255;27;20042;-58
2020/12/08 08:27:01;;;;;;;3.92;1.30;;;22.20;45.60;;;;;;5122279;27;20456;-56
2020/12/08 08:29:26;;;;;;;3.08;1.50;;;22.20;45.60;;;;;;5129204;27;20030;-58
2020/12/08 08:31:52;;;;;;;2.20;1.20;;;22.20;45.60;;;;;;5127377;27;20031;-57
2020/12/08 08:34:17;;;;;;;1.92;1.15;;;22.20;45.70;;;;;;5120353;27;20030;-58
2020/12/08 08:36:50;;;;;;;3.70;1.60;;;22.20;45.70;;;;;;5132073;27;20019;-59
2020/12/08 08:39:16;;;;;;;2.42;1.20;;;22.20;45.70;;;;;;5142449;27;20441;-56
2020/12/08 08:41:42;;;;;;;1.95;1.00;;;22.20;45.70;;;;;;5128885;27;20031;-54
2020/12/08 08:44:07;;;;;;;1.90;1.17;;;22.20;45.90;;;;;;5127890;27;20055;-57
2020/12/08 08:46:33;;;;;;;2.95;1.10;;;22.20;46.10;;;;;;5127187;27;20049;-54
2020/12/08 08:49:00;;;;;;;2.35;1.10;;;22.10;46.20;;;;;;5129928;27;20030;-57
2020/12/08 08:51:25;;;;;;;2.58;1.10;;;22.10;46.40;;;;;;5123514;27;20038;-57
2020/12/08 08:53:51;;;;;;;2.30;1.30;;;22.10;46.40;;;;;;5133716;27;20483;-56
2020/12/08 08:56:19;;;;;;;2.47;1.10;;;22.20;46.30;;;;;;5131089;27;20497;-58
2020/12/08 08:58:45;;;;;;;3.50;1.20;;;22.20;46.30;;;;;;5133470;27;20435;-57
2020/12/08 09:01:10;;;;;;;2.55;1.20;;;22.20;46.40;;;;;;5122527;27;20051;-57
2020/12/08 09:03:38;;;;;;;2.00;1.10;;;22.20;46.40;;;;;;5122758;27;20075;-55
2020/12/08 09:06:04;;;;;;;2.85;1.10;;;22.20;46.40;;;;;;5129708;27;20069;-53
2020/12/08 09:08:29;;;;;;;2.05;1.10;;;22.20;46.30;;;;;;5138170;27;20055;-58
2020/12/08 09:10:55;;;;;;;2.17;1.00;;;22.20;46.40;;;;;;5135213;27;20107;-55
2020/12/08 09:13:21;;;;;;;2.67;1.30;;;22.20;46.50;;;;;;5129254;27;20023;-53
2020/12/08 09:15:46;;;;;;;2.75;1.20;;;22.20;46.50;;;;;;5123671;27;20026;-57
2020/12/08 09:18:12;;;;;;;1.92;1.10;;;22.20;46.50;;;;;;5128606;27;20557;-57
2020/12/08 09:20:39;;;;;;;3.08;1.27;;;22.20;46.40;;;;;;5129037;27;20039;-59
2020/12/08 09:23:04;;;;;;;1.85;1.15;;;22.20;46.40;;;;;;5130146;27;20029;-57
2020/12/08 09:25:30;;;;;;;1.63;0.95;;;22.20;46.50;;;;;;5135026;27;20027;-56
2020/12/08 09:27:56;;;;;;;1.85;1.13;;;22.20;46.50;;;;;;5116533;27;20038;-57
2020/12/08 09:30:22;;;;;;;1.83;1.00;;;22.20;46.90;;;;;;5130428;27;20154;-55
2020/12/08 09:32:49;;;;;;;2.83;1.65;;;22.20;46.50;;;;;;5119622;27;20023;-57
2020/12/08 09:35:15;;;;;;;2.40;1.20;;;22.20;46.50;;;;;;5117420;27;20023;-55
2020/12/08 09:37:42;;;;;;;1.83;1.00;;;22.20;46.50;;;;;;5127142;27;20436;-55
2020/12/08 09:40:07;;;;;;;2.42;1.10;;;22.20;46.50;;;;;;5133054;27;20098;-56
2020/12/08 09:42:37;;;;;;;2.40;1.13;;;22.10;46.50;;;;;;5143265;27;20110;-54
2020/12/08 09:45:02;;;;;;;1.27;0.90;;;22.20;46.60;;;;;;5121608;27;20528;-56
2020/12/08 09:47:28;;;;;;;2.83;1.35;;;22.20;46.60;;;;;;5135670;27;20030;-53
2020/12/08 09:49:54;;;;;;;2.08;1.17;;;22.10;46.60;;;;;;5122135;27;20031;-56
2020/12/08 09:52:19;;;;;;;2.10;1.10;;;22.10;46.50;;;;;;5115672;27;20040;-54
2020/12/08 09:54:45;;;;;;;1.83;1.00;;;22.20;46.60;;;;;;5119227;27;20039;-56
2020/12/08 09:57:11;;;;;;;2.55;1.10;;;22.20;46.60;;;;;;5117280;27;20088;-59
2020/12/08 09:59:36;;;;;;;2.47;1.08;;;22.20;46.60;;;;;;5132206;27;20062;-56
2020/12/08 10:02:03;;;;;;;2.25;1.35;;;22.20;46.60;;;;;;5124800;27;20023;-58
2020/12/08 10:04:30;;;;;;;2.05;1.02;;;22.20;46.60;;;;;;5128594;27;20114;-54
2020/12/08 10:06:56;;;;;;;2.80;1.00;;;22.10;46.50;;;;;;5119995;27;20054;-53
2020/12/08 10:09:21;;;;;;;3.30;1.40;;;22.20;46.60;;;;;;5119206;27;20059;-57
2020/12/08 10:11:47;;;;;;;1.75;1.00;;;22.20;46.60;;;;;;5110753;27;20031;-53
2020/12/08 10:14:13;;;;;;;2.38;1.20;;;22.20;46.60;;;;;;5137364;27;20034;-56
2020/12/08 10:16:38;;;;;;;1.95;1.10;;;22.20;46.60;;;;;;5129675;27;20043;-57
2020/12/08 10:19:04;;;;;;;2.17;1.20;;;22.20;46.60;;;;;;5142037;27;20022;-56
2020/12/08 10:21:30;;;;;;;2.25;1.00;;;22.20;46.60;;;;;;5104186;27;20034;-54
2020/12/08 10:23:55;;;;;;;1.98;1.00;;;22.20;46.60;;;;;;5129916;27;20031;-56
2020/12/08 10:26:21;;;;;;;2.25;1.25;;;22.10;46.50;;;;;;5128601;27;20037;-58
2020/12/08 10:28:49;;;;;;;2.03;1.10;;;22.20;46.60;;;;;;5115747;27;20046;-53
2020/12/08 10:31:16;;;;;;;1.73;1.00;;;22.20;46.70;;;;;;5133766;27;20022;-55
2020/12/08 10:33:43;;;;;;;1.58;1.13;;;22.20;46.90;;;;;;5126540;27;20032;-54
2020/12/08 10:36:10;;;;;;;2.33;1.10;;;22.30;46.80;;;;;;5123360;27;20073;-54
2020/12/08 10:38:35;;;;;;;1.92;1.00;;;22.40;46.60;;;;;;5130484;27;20062;-52
2020/12/08 10:41:01;;;;;;;1.52;0.90;;;22.50;46.60;;;;;;5131092;27;20154;-59
2020/12/08 10:43:27;;;;;;;1.38;0.80;;;22.50;46.70;;;;;;5130360;27;20035;-57
2020/12/08 10:45:52;;;;;;;0.90;0.70;;;22.50;46.80;;;;;;5116485;27;20170;-56
2020/12/08 10:48:18;;;;;;;1.20;0.90;;;22.50;46.80;;;;;;5127830;27;20027;-57
2020/12/08 10:50:43;;;;;;;2.53;1.48;;;22.50;46.90;;;;;;5128021;27;20453;-58
2020/12/08 10:53:09;;;;;;;6.15;3.22;;;22.50;43.30;;;;;;5126153;27;20030;-56
2020/12/08 10:55:35;;;;;;;3.38;2.42;;;22.40;42.20;;;;;;5119167;27;20031;-53
2020/12/08 10:58:02;;;;;;;4.22;2.40;;;22.40;43.30;;;;;;5136672;27;20023;-54
2020/12/08 11:00:29;;;;;;;2.72;1.80;;;22.40;44.40;;;;;;5114138;27;20051;-55
2020/12/08 11:02:54;;;;;;;2.30;1.60;;;22.40;45.00;;;;;;5125346;27;20046;-57
2020/12/08 11:05:20;;;;;;;2.70;1.60;;;22.40;45.40;;;;;;5112913;27;20477;-57
2020/12/08 11:07:45;;;;;;;2.08;1.35;;;22.50;45.60;;;;;;5127615;27;20100;-55
2020/12/08 11:10:11;;;;;;;2.45;1.30;;;22.50;45.90;;;;;;5121745;27;20097;-58
2020/12/08 11:12:37;;;;;;;1.92;1.20;;;22.50;46.20;;;;;;5112460;27;20023;-57
2020/12/08 11:15:03;;;;;;;2.20;1.35;;;22.50;46.30;;;;;;5125115;27;20035;-58
2020/12/08 11:17:31;;;;;;;1.70;1.13;;;22.60;46.60;;;;;;5123178;27;20129;-56
2020/12/08 11:19:56;;;;;;;1.80;1.20;;;22.60;46.60;;;;;;5119067;27;20034;-54
2020/12/08 11:22:22;;;;;;;2.50;1.17;;;22.60;47.00;;;;;;5120192;27;20031;-58
2020/12/08 11:24:47;;;;;;;1.48;1.10;;;22.70;47.20;;;;;;5137541;27;20465;-54
2020/12/08 11:27:17;;;;;;;2.13;1.40;;;22.70;47.60;;;;;;5126754;27;20050;-58
2020/12/08 11:29:44;;;;;;;1.50;1.00;;;22.70;47.60;;;;;;5129341;27;20311;-55
2020/12/08 11:32:11;;;;;;;1.60;1.10;;;22.70;47.50;;;;;;5124689;27;20433;-58
2020/12/08 11:34:37;;;;;;;2.10;1.20;;;22.70;47.50;;;;;;5120237;27;20118;-58
2020/12/08 11:37:03;;;;;;;3.50;1.20;;;22.70;47.60;;;;;;5122757;27;20114;-58
2020/12/08 11:39:28;;;;;;;1.70;1.15;;;22.80;48.00;;;;;;5133289;27;20019;-57
2020/12/08 11:41:54;;;;;;;1.75;1.17;;;22.80;47.90;;;;;;5134142;27;20131;-59
2020/12/08 11:44:20;;;;;;;1.88;1.17;;;22.80;47.80;;;;;;5123215;27;20038;-56
2020/12/08 11:46:50;;;;;;;2.35;1.10;;;22.80;47.70;;;;;;5126878;27;20023;-56
2020/12/08 11:49:16;;;;;;;1.60;1.08;;;22.90;48.40;;;;;;5127182;27;20946;-58
2020/12/08 11:51:42;;;;;;;1.42;1.10;;;22.90;48.00;;;;;;5129446;27;20719;-54
2020/12/08 11:54:08;;;;;;;1.83;1.02;;;22.90;48.10;;;;;;5137558;27;20019;-57
2020/12/08 11:56:33;;;;;;;2.22;1.20;;;22.90;48.30;;;;;;5127396;27;20114;-57
2020/12/08 11:58:59;;;;;;;1.73;1.00;;;22.90;48.20;;;;;;5120606;27;20054;-59
2020/12/08 12:01:25;;;;;;;1.80;1.10;;;23.00;48.10;;;;;;5113675;27;20091;-55
2020/12/08 12:03:50;;;;;;;1.92;1.25;;;23.00;48.40;;;;;;5115897;27;20023;-55
2020/12/08 12:06:16;;;;;;;1.90;1.10;;;23.00;48.40;;;;;;5123648;27;20526;-55
2020/12/08 12:08:41;;;;;;;2.38;1.85;;;23.00;48.40;;;;;;5140481;27;20026;-55
2020/12/08 12:11:08;;;;;;;5.10;2.55;;;23.00;43.20;;;;;;5112575;27;20518;-60
2020/12/08 12:13:33;;;;;;;3.05;2.20;;;22.90;41.50;;;;;;5107553;27;20031;-57
2020/12/08 12:15:59;;;;;;;3.72;2.42;;;22.90;41.10;;;;;;5124443;27;20025;-59
2020/12/08 12:18:25;;;;;;;4.68;2.30;;;22.80;41.50;;;;;;5110205;27;20061;-56
2020/12/08 12:20:50;;;;;;;4.50;2.55;;;22.80;41.80;;;;;;5120870;27;20034;-54
2020/12/08 12:23:16;;;;;;;6.72;5.35;;;22.70;41.00;;;;;;5128059;27;20136;-58
2020/12/08 12:25:42;;;;;;;7.18;6.10;;;22.60;37.90;;;;;;5134298;27;20062;-58
2020/12/08 12:28:08;;;;;;;8.80;7.50;;;22.50;36.40;;;;;;5117428;27;20075;-55
2020/12/08 12:30:33;;;;;;;10.55;8.88;;;22.20;34.10;;;;;;5126068;27;20031;-55
2020/12/08 12:32:59;;;;;;;8.70;7.65;;;22.00;33.60;;;;;;5118502;27;20036;-55
2020/12/08 12:35:24;;;;;;;9.02;7.78;;;21.80;34.00;;;;;;5134859;27;20039;-58
2020/12/08 12:37:50;;;;;;;8.23;7.35;;;21.60;33.20;;;;;;5125885;27;20066;-58
2020/12/08 12:40:16;;;;;;;8.35;7.35;;;21.50;33.70;;;;;;5124458;27;20031;-54
2020/12/08 12:42:41;;;;;;;8.60;7.60;;;21.40;33.00;;;;;;5128820;27;20027;-59
2020/12/08 12:45:07;;;;;;;7.50;6.70;;;21.30;32.90;;;;;;5122391;27;20023;-56
2020/12/08 12:47:33;;;;;;;7.28;5.43;;;21.20;33.40;;;;;;5129663;27;20378;-58